createdAt,value
2023-03-19T00:01:55.869Z,21.10
2023-03-19T00:04:27.750Z,20.90
2023-03-19T00:06:58.124Z,21.25
2023-03-19T00:09:28.960Z,20.95
2023-03-19T00:11:59.550Z,20.58
2023-03-19T00:14:29.920Z,20.30
2023-03-19T00:17:00.333Z,20.85
2023-03-19T00:19:31.847Z,20.88
2023-03-19T00:22:02.166Z,20.20
2023-03-19T00:24:32.734Z,20.83
2023-03-19T00:27:05.206Z,21.20
2023-03-19T00:29:36.455Z,18.80
2023-03-19T00:32:07.395Z,21.88
2023-03-19T00:34:38.317Z,21.05
2023-03-19T00:37:08.996Z,20.17
2023-03-19T00:39:39.396Z,21.23
2023-03-19T00:42:10.634Z,21.23
2023-03-19T00:44:45.618Z,19.35
2023-03-19T00:47:16.608Z,20.02
2023-03-19T00:49:47.300Z,20.50
2023-03-19T00:52:18.516Z,20.05
2023-03-19T00:54:48.837Z,21.42
2023-03-19T00:57:19.275Z,19.00
2023-03-19T00:59:49.790Z,21.25
2023-03-19T01:02:20.609Z,19.13
2023-03-19T01:04:51.621Z,20.33
2023-03-19T01:07:22.821Z,20.65
2023-03-19T01:09:53.541Z,20.33
2023-03-19T01:12:24.531Z,19.73
2023-03-19T01:14:55.051Z,21.38
2023-03-19T01:17:25.407Z,18.50
2023-03-19T01:19:55.779Z,18.98
2023-03-19T01:22:26.222Z,18.10
2023-03-19T01:25:00.426Z,21.40
2023-03-19T01:27:32.310Z,19.65
2023-03-19T01:30:04.932Z,19.38
2023-03-19T01:33:08.201Z,20.20
2023-03-19T01:36:07.389Z,20.42
2023-03-19T01:38:53.274Z,19.65
2023-03-19T01:41:24.628Z,19.05
2023-03-19T01:43:57.941Z,20.75
2023-03-19T01:46:41.871Z,21.77
2023-03-19T01:49:33.636Z,20.58
2023-03-19T01:52:33.964Z,20.30
2023-03-19T01:55:21.788Z,19.67
2023-03-19T01:58:09.300Z,20.27
2023-03-19T02:01:03.068Z,21.13
2023-03-19T02:03:36.894Z,17.35
2023-03-19T02:06:21.460Z,19.50
2023-03-19T02:08:53.405Z,19.67
2023-03-19T02:11:23.960Z,18.30
2023-03-19T02:13:54.512Z,18.52
2023-03-19T02:16:25.626Z,18.02
2023-03-19T02:18:57.221Z,20.55
2023-03-19T02:21:27.971Z,18.17
2023-03-19T02:24:10.838Z,18.05
2023-03-19T02:26:54.422Z,20.75
2023-03-19T02:29:24.821Z,17.77
2023-03-19T02:31:56.279Z,18.95
2023-03-19T02:34:26.572Z,18.55
2023-03-19T02:37:03.979Z,19.38
2023-03-19T02:39:52.142Z,18.35
2023-03-19T02:42:26.267Z,19.23
2023-03-19T02:44:56.662Z,19.17
2023-03-19T02:47:28.570Z,20.25
2023-03-19T02:49:59.038Z,18.30
2023-03-19T02:52:29.873Z,19.05
2023-03-19T02:55:00.160Z,20.15
2023-03-19T02:57:30.692Z,18.42
2023-03-19T03:00:01.069Z,19.38
2023-03-19T03:02:32.571Z,21.20
2023-03-19T03:05:03.126Z,20.10
2023-03-19T03:07:34.196Z,18.35
2023-03-19T03:10:04.754Z,18.33
2023-03-19T03:12:35.110Z,18.65
2023-03-19T03:15:05.880Z,21.50
2023-03-19T03:17:39.629Z,18.38
2023-03-19T03:20:13.012Z,18.63
2023-03-19T03:22:43.770Z,19.63
2023-03-19T03:25:15.215Z,19.38
2023-03-19T03:27:45.786Z,18.40
2023-03-19T03:30:17.713Z,20.35
2023-03-19T03:32:48.453Z,17.90
2023-03-19T03:35:23.521Z,19.95
2023-03-19T03:37:54.714Z,19.30
2023-03-19T03:40:25.053Z,18.65
2023-03-19T03:42:55.687Z,18.35
2023-03-19T03:45:27.219Z,18.27
2023-03-19T03:47:57.775Z,19.60
2023-03-19T03:50:28.309Z,17.88
2023-03-19T03:53:02.433Z,20.17
2023-03-19T03:55:34.600Z,18.13
2023-03-19T03:58:06.264Z,18.67
2023-03-19T04:00:36.907Z,21.50
2023-03-19T04:03:07.891Z,18.92
2023-03-19T04:05:39.482Z,18.77
2023-03-19T04:08:11.094Z,19.83
2023-03-19T04:10:44.452Z,19.98
2023-03-19T04:13:15.595Z,19.67
2023-03-19T04:15:46.952Z,22.77
2023-03-19T04:18:18.300Z,21.17
2023-03-19T04:20:49.230Z,20.88
2023-03-19T04:23:19.708Z,21.85
2023-03-19T04:25:50.069Z,21.33
2023-03-19T04:28:20.533Z,20.63
2023-03-19T04:30:51.011Z,19.23
2023-03-19T04:33:22.424Z,19.10
2023-03-19T04:35:53.438Z,19.67
2023-03-19T04:38:25.447Z,19.13
2023-03-19T04:40:56.627Z,19.83
2023-03-19T04:43:28.059Z,18.38
2023-03-19T04:45:58.538Z,18.23
2023-03-19T04:48:28.998Z,20.65
2023-03-19T04:50:59.858Z,20.45
2023-03-19T04:53:30.459Z,20.13
2023-03-19T04:56:01.208Z,20.73
2023-03-19T04:58:32.717Z,20.48
2023-03-19T05:01:05.685Z,20.08
2023-03-19T05:03:59.250Z,20.35
2023-03-19T05:06:29.817Z,19.75
2023-03-19T05:09:01.069Z,19.77
2023-03-19T05:11:31.549Z,19.83
2023-03-19T05:14:19.645Z,18.67
2023-03-19T05:17:12.835Z,19.63
2023-03-19T05:20:09.697Z,20.48
2023-03-19T05:22:41.589Z,19.33
2023-03-19T05:25:11.960Z,20.35
2023-03-19T05:27:44.202Z,19.67
2023-03-19T05:30:20.976Z,20.00
2023-03-19T05:33:12.070Z,18.00
2023-03-19T05:35:44.892Z,18.58
2023-03-19T05:38:22.605Z,19.88
2023-03-19T05:41:09.732Z,20.42
2023-03-19T05:43:51.392Z,17.65
2023-03-19T05:46:37.179Z,19.70
2023-03-19T05:49:07.976Z,19.25
2023-03-19T05:51:38.681Z,17.88
2023-03-19T05:54:10.597Z,17.45
2023-03-19T05:57:14.000Z,17.48
2023-03-19T06:00:06.631Z,17.25
2023-03-19T06:02:38.396Z,16.80
2023-03-19T06:05:40.835Z,17.55
2023-03-19T06:08:31.415Z,18.50
2023-03-19T06:11:12.397Z,18.85
2023-03-19T06:13:45.020Z,17.40
2023-03-19T06:16:19.072Z,17.85
2023-03-19T06:18:57.059Z,16.73
2023-03-19T06:21:31.024Z,17.98
2023-03-19T06:24:05.010Z,16.77
2023-03-19T06:26:39.033Z,18.13
2023-03-19T06:29:17.243Z,18.15
2023-03-19T06:31:52.480Z,18.63
2023-03-19T06:34:29.892Z,20.10
2023-03-19T06:37:00.272Z,19.67
2023-03-19T06:39:30.792Z,17.50
2023-03-19T06:42:02.038Z,17.95
2023-03-19T06:44:32.474Z,19.35
2023-03-19T06:47:03.737Z,17.55
2023-03-19T06:49:34.636Z,17.70
2023-03-19T06:52:05.074Z,18.65
2023-03-19T06:54:38.377Z,17.08
2023-03-19T06:57:09.023Z,17.27
2023-03-19T06:59:39.423Z,17.30
2023-03-19T07:02:11.952Z,16.65
2023-03-19T07:04:42.872Z,14.75
2023-03-19T07:07:13.308Z,16.83
2023-03-19T07:09:43.544Z,17.10
2023-03-19T07:12:13.868Z,17.20
2023-03-19T07:14:44.560Z,17.23
2023-03-19T07:17:15.088Z,14.90
2023-03-19T07:19:45.802Z,15.95
2023-03-19T07:22:16.326Z,15.32
2023-03-19T07:24:47.056Z,15.93
2023-03-19T07:27:18.051Z,15.60
2023-03-19T07:29:48.923Z,15.73
2023-03-19T07:32:19.935Z,15.57
2023-03-19T07:34:50.626Z,16.13
2023-03-19T07:37:22.612Z,15.40
2023-03-19T07:39:53.671Z,14.77
2023-03-19T07:42:23.980Z,15.75
2023-03-19T07:44:54.489Z,15.77
2023-03-19T07:47:29.287Z,14.82
2023-03-19T07:50:00.682Z,15.20
2023-03-19T07:52:31.069Z,14.35
2023-03-19T07:55:01.742Z,15.15
2023-03-19T07:57:33.064Z,15.98
2023-03-19T08:00:03.784Z,15.23
2023-03-19T08:02:44.381Z,14.05
2023-03-19T08:05:14.925Z,15.32
2023-03-19T08:07:46.468Z,14.55
2023-03-19T08:10:17.759Z,14.33
2023-03-19T08:12:48.175Z,14.23
2023-03-19T08:15:18.831Z,14.82
2023-03-19T08:17:50.611Z,14.82
2023-03-19T08:20:22.763Z,13.88
2023-03-19T08:22:53.482Z,14.20
2023-03-19T08:25:24.002Z,14.73
2023-03-19T08:27:54.512Z,14.40
2023-03-19T08:30:25.167Z,13.77
2023-03-19T08:32:55.745Z,14.63
2023-03-19T08:35:28.593Z,14.00
2023-03-19T08:37:59.215Z,14.35
2023-03-19T08:40:30.268Z,15.75
2023-03-19T08:43:00.537Z,16.42
2023-03-19T08:45:31.046Z,16.67
2023-03-19T08:48:01.849Z,18.80
2023-03-19T08:50:32.788Z,18.48
2023-03-19T08:53:03.465Z,17.55
2023-03-19T08:55:33.801Z,19.63
2023-03-19T08:58:04.124Z,18.50
2023-03-19T09:00:34.647Z,19.67
2023-03-19T09:03:05.205Z,19.67
2023-03-19T09:05:35.802Z,19.73
2023-03-19T09:08:07.050Z,18.60
2023-03-19T09:10:37.924Z,19.80
2023-03-19T09:13:08.655Z,18.98
2023-03-19T09:15:39.036Z,19.52
2023-03-19T09:18:10.191Z,19.40
2023-03-19T09:20:41.352Z,19.60
2023-03-19T09:23:11.878Z,19.05
2023-03-19T09:25:43.152Z,19.52
2023-03-19T09:28:13.968Z,19.52
2023-03-19T09:30:44.972Z,19.85
2023-03-19T09:33:15.600Z,20.05
2023-03-19T09:35:50.674Z,18.75
2023-03-19T09:38:22.745Z,18.88
2023-03-19T09:41:11.346Z,18.60
2023-03-19T09:44:05.468Z,19.85
2023-03-19T09:46:56.008Z,19.40
2023-03-19T09:49:33.929Z,19.48
2023-03-19T09:52:39.229Z,21.08
2023-03-19T09:55:34.403Z,22.00
2023-03-19T09:58:12.741Z,21.45
2023-03-19T10:00:44.979Z,21.27
2023-03-19T10:03:33.373Z,20.55
2023-03-19T10:06:31.589Z,23.15
2023-03-19T10:09:20.088Z,18.83
2023-03-19T10:12:23.667Z,20.88
2023-03-19T10:15:17.693Z,21.25
2023-03-19T10:17:48.834Z,22.42
2023-03-19T10:20:51.458Z,21.83
2023-03-19T10:23:34.076Z,21.90
2023-03-19T10:26:08.815Z,23.13
2023-03-19T10:28:41.463Z,23.73
2023-03-19T10:31:29.116Z,24.65
2023-03-19T10:34:05.453Z,23.15
2023-03-19T10:36:38.439Z,22.83
2023-03-19T10:39:09.384Z,23.30
2023-03-19T10:41:52.668Z,23.58
2023-03-19T10:44:44.886Z,24.33
2023-03-19T10:47:18.151Z,24.60
2023-03-19T10:49:49.182Z,24.23
2023-03-19T10:52:31.569Z,24.45
2023-03-19T10:55:31.770Z,24.30
2023-03-19T10:58:08.646Z,25.85
2023-03-19T11:00:39.716Z,25.23
2023-03-19T11:03:30.822Z,24.73
2023-03-19T11:06:22.647Z,25.33
2023-03-19T11:09:00.775Z,24.73
2023-03-19T11:11:39.102Z,24.70
2023-03-19T11:14:17.532Z,24.77
2023-03-19T11:17:18.868Z,26.60
2023-03-19T11:20:18.033Z,26.52
2023-03-19T11:22:49.088Z,24.90
2023-03-19T11:25:44.768Z,25.88
2023-03-19T11:28:21.839Z,25.58
2023-03-19T11:31:16.762Z,27.77
2023-03-19T11:34:12.093Z,27.58
2023-03-19T11:37:05.123Z,28.02
2023-03-19T11:39:56.996Z,28.23
2023-03-19T11:42:46.812Z,29.23
2023-03-19T11:45:29.327Z,28.48
2023-03-19T11:48:19.235Z,30.63
2023-03-19T11:50:55.487Z,28.58
2023-03-19T11:53:45.804Z,30.73
2023-03-19T11:56:37.356Z,28.00
2023-03-19T11:59:34.134Z,28.48
2023-03-19T12:02:22.912Z,30.15
2023-03-19T12:05:03.122Z,29.80
2023-03-19T12:07:51.559Z,27.52
2023-03-19T12:11:14.649Z,27.17
2023-03-19T12:13:50.736Z,29.45
2023-03-19T12:16:46.476Z,28.80
2023-03-19T12:19:35.461Z,27.70
2023-03-19T12:22:43.713Z,29.65
2023-03-19T12:25:46.462Z,29.73
2023-03-19T12:28:23.310Z,30.45
2023-03-19T12:31:11.968Z,29.33
2023-03-19T12:33:57.985Z,30.63
2023-03-19T12:36:33.712Z,29.17
2023-03-19T12:39:17.049Z,29.30
2023-03-19T12:41:51.570Z,32.17
2023-03-19T12:44:33.199Z,31.27
2023-03-19T12:47:14.499Z,30.05
2023-03-19T12:49:59.064Z,31.15
2023-03-19T12:52:32.828Z,29.13
2023-03-19T12:55:24.820Z,31.52
2023-03-19T12:58:05.966Z,31.73
2023-03-19T13:00:45.352Z,32.50
2023-03-19T13:03:21.308Z,30.52
2023-03-19T13:06:02.729Z,32.92
2023-03-19T13:09:01.908Z,30.15
2023-03-19T13:11:50.018Z,32.45
2023-03-19T13:14:38.961Z,30.58
2023-03-19T13:17:47.173Z,31.45
2023-03-19T13:20:52.525Z,31.25
2023-03-19T13:23:31.414Z,32.22
2023-03-19T13:26:06.165Z,29.52
2023-03-19T13:28:55.317Z,33.90
2023-03-19T13:31:30.575Z,30.92
2023-03-19T13:34:05.478Z,30.30
2023-03-19T13:36:43.877Z,31.58
2023-03-19T13:39:19.454Z,30.98
2023-03-19T13:42:01.232Z,33.28
2023-03-19T13:44:36.014Z,32.58
2023-03-19T13:47:35.089Z,33.10
2023-03-19T13:50:17.514Z,33.15
2023-03-19T13:52:47.850Z,31.42
2023-03-19T13:55:29.910Z,33.42
2023-03-19T13:58:35.562Z,33.83
2023-03-19T14:01:09.053Z,32.17
2023-03-19T14:03:55.666Z,33.58
2023-03-19T14:06:35.038Z,33.17
2023-03-19T14:09:07.659Z,33.97
2023-03-19T14:11:39.838Z,32.63
2023-03-19T14:14:17.283Z,34.08
2023-03-19T14:16:48.437Z,34.35
2023-03-19T14:19:22.657Z,34.03
2023-03-19T14:22:05.745Z,33.90
2023-03-19T14:27:48.501Z,32.13
2023-03-19T14:30:37.766Z,32.63
2023-03-19T14:33:19.436Z,31.67
2023-03-19T14:35:51.998Z,31.38
2023-03-19T14:38:34.794Z,34.92
2023-03-19T14:41:06.959Z,32.72
2023-03-19T14:43:58.703Z,34.55
2023-03-19T14:46:47.773Z,33.03
2023-03-19T14:50:01.720Z,34.47
2023-03-19T14:52:37.406Z,32.95
2023-03-19T14:55:19.254Z,33.33
2023-03-19T14:58:25.723Z,34.58
2023-03-19T15:02:08.980Z,34.15
2023-03-19T15:05:00.498Z,32.53
2023-03-19T15:08:10.072Z,32.55
2023-03-19T15:11:30.420Z,35.20
2023-03-19T15:14:18.896Z,33.92
2023-03-19T15:17:42.570Z,34.20
2023-03-19T15:20:57.580Z,33.03
2023-03-19T15:23:47.524Z,32.85
2023-03-19T15:26:39.835Z,33.33
2023-03-19T15:29:29.419Z,33.42
2023-03-19T15:32:52.243Z,33.53
2023-03-19T15:35:30.751Z,33.00
2023-03-19T15:38:05.035Z,33.35
2023-03-19T15:40:37.866Z,33.08
2023-03-19T15:43:11.326Z,33.83
2023-03-19T15:45:44.341Z,33.55
2023-03-19T15:48:23.872Z,34.50
2023-03-19T15:51:01.728Z,32.67
2023-03-19T15:53:36.457Z,34.05
2023-03-19T15:56:07.902Z,34.35
2023-03-19T15:58:48.576Z,32.75
2023-03-19T16:01:20.923Z,34.83
2023-03-19T16:04:04.214Z,33.05
2023-03-19T16:06:40.974Z,32.95
2023-03-19T16:09:17.282Z,34.25
2023-03-19T16:11:49.156Z,33.97
2023-03-19T16:14:27.601Z,32.92
2023-03-19T16:17:15.736Z,34.10
2023-03-19T16:20:00.147Z,34.30
2023-03-19T16:22:34.978Z,33.38
2023-03-19T16:25:09.245Z,33.15
2023-03-19T16:27:44.403Z,35.03
2023-03-19T16:30:24.609Z,35.88
2023-03-19T16:33:06.562Z,34.95
2023-03-19T16:35:39.169Z,34.85
2023-03-19T16:38:31.542Z,34.08
2023-03-19T16:41:24.961Z,34.00
2023-03-19T16:43:56.886Z,34.50
2023-03-19T16:46:28.639Z,34.45
2023-03-19T16:48:58.841Z,35.28
2023-03-19T16:51:29.123Z,35.17
2023-03-19T16:53:59.407Z,35.33
2023-03-19T16:56:29.970Z,34.35
2023-03-19T16:59:04.336Z,33.47
2023-03-19T17:01:34.930Z,35.30
2023-03-19T17:04:14.712Z,34.83
2023-03-19T17:06:45.623Z,34.17
2023-03-19T17:09:15.972Z,34.63
2023-03-19T17:11:46.769Z,34.53
2023-03-19T17:14:23.489Z,33.55
2023-03-19T17:16:53.951Z,34.35
2023-03-19T17:19:33.665Z,33.42
2023-03-19T17:22:04.911Z,32.47
2023-03-19T17:24:36.356Z,35.60
2023-03-19T17:27:07.152Z,33.50
2023-03-19T17:29:37.516Z,34.70
2023-03-19T17:32:15.430Z,32.83
2023-03-19T17:34:45.872Z,33.30
2023-03-19T17:37:17.226Z,33.00
2023-03-19T17:39:48.539Z,35.13
2023-03-19T17:42:24.989Z,34.30
2023-03-19T17:44:58.265Z,34.72
2023-03-19T17:47:28.689Z,34.88
2023-03-19T17:49:59.786Z,34.28
2023-03-19T17:52:31.907Z,34.53
2023-03-19T17:55:02.495Z,35.80
2023-03-19T17:57:33.274Z,34.47
2023-03-19T18:00:03.876Z,36.53
2023-03-19T18:02:37.228Z,35.47
2023-03-19T18:05:08.919Z,33.28
2023-03-19T18:07:39.233Z,33.58
2023-03-19T18:10:13.431Z,35.40
2023-03-19T18:12:43.918Z,33.60
2023-03-19T18:15:15.251Z,35.00
2023-03-19T18:17:59.230Z,34.45
2023-03-19T18:23:02.199Z,36.75
2023-03-19T18:25:37.208Z,35.17
2023-03-19T18:28:08.398Z,34.50
2023-03-19T18:30:41.406Z,34.70
2023-03-19T18:33:27.855Z,35.05
2023-03-19T18:35:59.741Z,35.63
2023-03-19T18:38:30.153Z,34.20
2023-03-19T18:41:00.763Z,35.38
2023-03-19T18:43:31.354Z,35.33
2023-03-19T18:46:02.199Z,34.40
2023-03-19T18:48:33.856Z,36.35
2023-03-19T18:51:04.202Z,34.30
2023-03-19T18:53:34.837Z,35.95
2023-03-19T18:56:09.381Z,35.42
2023-03-19T18:58:40.984Z,37.05
2023-03-19T19:01:16.445Z,35.22
2023-03-19T19:03:49.443Z,36.38
2023-03-19T19:06:46.020Z,37.28
2023-03-19T19:09:17.717Z,36.47
2023-03-19T19:11:50.071Z,35.95
2023-03-19T19:14:23.477Z,35.72
2023-03-19T19:16:55.682Z,37.25
2023-03-19T19:19:29.138Z,36.25
2023-03-19T19:21:59.597Z,38.05
2023-03-19T19:24:30.113Z,37.42
2023-03-19T19:27:03.030Z,38.05
2023-03-19T19:29:33.993Z,37.05
2023-03-19T19:32:05.942Z,39.65
2023-03-19T19:34:36.338Z,38.92
2023-03-19T19:37:06.854Z,37.08
2023-03-19T19:39:37.287Z,37.83
2023-03-19T19:42:07.894Z,38.55
2023-03-19T19:44:39.114Z,37.55
2023-03-19T19:47:17.181Z,39.42
2023-03-19T19:49:47.688Z,35.25
2023-03-19T19:52:20.434Z,38.60
2023-03-19T19:54:53.205Z,39.05
2023-03-19T19:57:28.441Z,39.03
2023-03-19T19:59:59.130Z,41.13
2023-03-19T20:02:31.333Z,40.85
2023-03-19T20:05:01.734Z,40.13
2023-03-19T20:07:32.238Z,37.50
2023-03-19T20:10:02.722Z,40.28
2023-03-19T20:12:34.985Z,40.38
2023-03-19T20:15:05.684Z,40.93
2023-03-19T20:17:36.155Z,40.53
2023-03-19T20:20:14.849Z,39.83
2023-03-19T20:22:45.432Z,41.47
2023-03-19T20:25:16.407Z,40.47
2023-03-19T20:27:48.354Z,42.17
2023-03-19T20:30:33.885Z,41.50
2023-03-19T20:33:05.219Z,43.33
2023-03-19T20:35:38.360Z,41.92
2023-03-19T20:38:09.068Z,43.78
2023-03-19T20:40:53.552Z,42.13
2023-03-19T20:43:36.098Z,41.85
2023-03-19T20:46:09.230Z,41.53
2023-03-19T20:48:40.350Z,42.90
2023-03-19T20:51:20.073Z,43.90
2023-03-19T20:53:52.135Z,44.28
2023-03-19T20:56:28.810Z,43.30
2023-03-19T20:59:00.106Z,47.83
2023-03-19T21:01:30.617Z,49.22
2023-03-19T21:04:01.010Z,48.10
2023-03-19T21:06:46.064Z,44.28
2023-03-19T21:09:20.511Z,40.67
2023-03-19T21:11:50.837Z,35.58
2023-03-19T21:14:21.836Z,31.90
2023-03-19T21:16:52.535Z,30.42
2023-03-19T21:19:23.884Z,28.80
2023-03-19T21:21:54.282Z,24.52
2023-03-19T21:24:26.231Z,27.95
2023-03-19T21:26:57.638Z,25.67
2023-03-19T21:29:34.965Z,24.67
2023-03-19T21:32:06.032Z,24.00
2023-03-19T21:34:36.475Z,26.50
2023-03-19T21:37:07.676Z,25.02
2023-03-19T21:39:38.110Z,23.00
2023-03-19T21:42:10.750Z,21.10
2023-03-19T21:44:41.466Z,23.08
2023-03-19T21:47:19.048Z,21.60
2023-03-19T21:49:51.389Z,22.27
2023-03-19T21:52:23.566Z,20.15
2023-03-19T21:54:54.009Z,19.55
2023-03-19T21:57:25.554Z,20.15
2023-03-19T21:59:56.186Z,19.25
2023-03-19T22:02:29.353Z,19.80
2023-03-19T22:05:00.123Z,19.05
2023-03-19T22:07:30.378Z,17.00
2023-03-19T22:10:01.201Z,17.40
2023-03-19T22:12:34.597Z,17.30
2023-03-19T22:15:05.729Z,18.60
2023-03-19T22:17:36.497Z,18.48
2023-03-19T22:20:07.289Z,17.63
2023-03-19T22:22:37.644Z,18.40
2023-03-19T22:25:08.419Z,16.50
2023-03-19T22:27:39.032Z,15.88
2023-03-19T22:30:20.748Z,17.50
2023-03-19T22:32:52.785Z,15.27
2023-03-19T22:35:23.264Z,15.18
2023-03-19T22:37:53.619Z,16.75
2023-03-19T22:40:23.994Z,16.60
2023-03-19T22:42:55.530Z,16.13
2023-03-19T22:45:31.999Z,17.63
2023-03-19T22:48:02.689Z,16.73
2023-03-19T22:50:34.420Z,16.13
2023-03-19T22:53:05.021Z,15.60
2023-03-19T22:55:37.167Z,15.65
2023-03-19T22:58:07.835Z,15.83
2023-03-19T23:00:38.354Z,14.27
2023-03-19T23:03:16.384Z,14.30
2023-03-19T23:05:50.378Z,13.52
2023-03-19T23:08:21.251Z,14.02
2023-03-19T23:10:53.417Z,15.05
2023-03-19T23:13:24.825Z,16.45
2023-03-19T23:16:02.475Z,18.63
2023-03-19T23:18:38.666Z,19.52
2023-03-19T23:21:13.333Z,21.17
2023-03-19T23:23:44.723Z,22.70
2023-03-19T23:26:38.348Z,22.58
2023-03-19T23:31:39.661Z,27.00
2023-03-19T23:34:13.393Z,28.45
2023-03-19T23:36:45.156Z,28.00
2023-03-19T23:39:15.650Z,26.25
2023-03-19T23:41:52.374Z,27.08
2023-03-19T23:44:23.625Z,27.10
2023-03-19T23:46:55.013Z,27.63
2023-03-19T23:49:31.830Z,26.75
2023-03-19T23:52:03.829Z,28.65
2023-03-19T23:54:38.547Z,29.38
2023-03-19T23:57:14.852Z,31.77
2023-03-19T23:59:47.344Z,30.38
